Airport Name : Memmingen Allgau

Other Name : Memmingen

ICAO : EDJA

IATA : FMM

FAA :

Latitude : 47.988758

Longitude : 10.2395

Country : Germany

Local Date and Time : 23 Sep 2021 13:41

 

TAF (Terminal Aerodrome Forecast)

TAF EDJA 231100Z 2312/2321 24008KT CAVOK

 

METAR (METeorological Aerodrome Report)

EDJA 231120Z 24009KT CAVOK 16/11 Q1022

EDJA 231050Z 23008KT CAVOK 16/09 Q1022

EDJA 231020Z 23008KT CAVOK 16/09 Q1022

EDJA 230950Z 22004KT 190V260 CAVOK 15/10 Q1022

EDJA 230920Z 25005KT 230V290 9999 FEW013 14/10 Q1022

EDJA 230850Z 23003KT 150V300 CAVOK 13/10 Q1022

EDJA 230820Z 23006KT CAVOK 12/09 Q1022

EDJA 230750Z 21004KT CAVOK 10/08 Q1022

To Charter a Jet Click here.